Terminal Aerodrome Forecast
Issued by NWS

Home | Current Version | Previous Version | Graphics & Text | Print | Product List | Glossary On
Versions: 1 2 3 4 5 6 7 8 9 10 11 12 13 14 15 16 17 18 19 20 21 22 23 24 25 26 27 28 29 30 31 32 33 34
000
FTUS43 KLOT 181700
TAFMDW
TAF
KMDW 181740Z 1818/1918 19004KT P6SM SCT020
     FM182100 12008KT P6SM BKN035
     FM190300 17006KT P6SM VCSH BKN040 BKN100
     FM190500 19006KT 5SM -TSRA BKN035CB
     FM190900 20007KT 6SM BR BKN035
     FM191500 22012G18KT P6SM VCSH BKN035 PROB30 1916/1918 -TSRA
      BKN035CB=

USA.gov is the U.S. government's official web portal to all federal, state and local government web resources and services.